createdAt,value
2023-05-24T00:00:16.018Z,12.06
2023-05-24T00:02:45.816Z,12.05
2023-05-24T00:05:16.904Z,12.02
2023-05-24T00:07:46.702Z,12.03
2023-05-24T00:10:16.390Z,12.04
2023-05-24T00:12:46.114Z,12.06
2023-05-24T00:15:17.083Z,12.10
2023-05-24T00:17:46.793Z,12.14
2023-05-24T00:20:17.218Z,12.15
2023-05-24T00:22:47.060Z,12.18
2023-05-24T00:25:16.712Z,12.19
2023-05-24T00:27:46.437Z,12.20
2023-05-24T00:30:17.557Z,12.21
2023-05-24T00:32:47.189Z,12.20
2023-05-24T00:35:16.778Z,12.18
2023-05-24T00:37:46.633Z,12.20
2023-05-24T00:40:18.950Z,12.22
2023-05-24T00:42:48.453Z,12.16
2023-05-24T00:45:20.617Z,12.16
2023-05-24T00:47:50.487Z,12.14
2023-05-24T00:50:21.155Z,12.16
2023-05-24T00:52:52.754Z,12.16
2023-05-24T00:55:22.515Z,12.17
2023-05-24T00:57:55.102Z,12.18
2023-05-24T01:00:27.294Z,12.18
2023-05-24T01:02:57.252Z,12.17
2023-05-24T01:05:26.885Z,12.15
2023-05-24T01:08:15.051Z,12.15
2023-05-24T01:10:59.173Z,12.16
2023-05-24T01:13:39.490Z,12.19
2023-05-24T01:16:18.691Z,12.22
2023-05-24T01:18:55.438Z,12.20
2023-05-24T01:21:56.386Z,12.21
2023-05-24T01:24:33.660Z,12.23
2023-05-24T01:27:10.100Z,12.25
2023-05-24T01:29:40.533Z,12.26
2023-05-24T01:32:11.271Z,12.26
2023-05-24T01:34:42.342Z,12.23
2023-05-24T01:37:11.858Z,12.24
2023-05-24T01:39:42.704Z,12.20
2023-05-24T01:42:28.560Z,12.20
2023-05-24T01:45:10.432Z,12.21
2023-05-24T01:47:58.404Z,12.16
2023-05-24T01:50:33.649Z,12.17
2023-05-24T01:53:08.903Z,12.15
2023-05-24T01:55:40.828Z,12.14
2023-05-24T01:58:12.498Z,12.13
2023-05-24T02:00:42.941Z,12.10
2023-05-24T02:03:15.593Z,12.12
2023-05-24T02:05:46.395Z,12.11
2023-05-24T02:08:16.063Z,12.09
2023-05-24T02:10:45.623Z,12.08
2023-05-24T02:13:18.187Z,12.07
2023-05-24T02:15:47.991Z,12.09
2023-05-24T02:18:18.819Z,12.04
2023-05-24T02:20:48.411Z,12.04
2023-05-24T02:23:19.016Z,12.07
2023-05-24T02:25:48.624Z,12.05
2023-05-24T02:28:19.621Z,12.04
2023-05-24T02:30:49.351Z,12.05
2023-05-24T02:33:19.065Z,12.06
2023-05-24T02:35:48.623Z,12.04
2023-05-24T02:38:18.302Z,12.04
2023-05-24T02:40:47.926Z,12.05
2023-05-24T02:43:18.875Z,12.04
2023-05-24T02:45:48.702Z,11.99
2023-05-24T02:48:18.233Z,11.97
2023-05-24T02:50:47.880Z,11.94
2023-05-24T02:53:17.425Z,11.92
2023-05-24T02:55:47.345Z,11.91
2023-05-24T02:58:19.732Z,11.88
2023-05-24T03:00:52.131Z,11.88
2023-05-24T03:03:23.684Z,11.89
2023-05-24T03:05:53.461Z,11.88
2023-05-24T03:08:23.195Z,11.85
2023-05-24T03:10:52.776Z,11.85
2023-05-24T03:13:23.734Z,11.89
2023-05-24T03:15:53.317Z,11.82
2023-05-24T03:18:23.099Z,11.77
2023-05-24T03:20:52.993Z,11.75
2023-05-24T03:23:22.584Z,11.72
2023-05-24T03:25:52.292Z,11.74
2023-05-24T03:28:23.547Z,11.68
2023-05-24T03:30:53.168Z,11.63
2023-05-24T03:33:22.895Z,11.62
2023-05-24T03:35:53.037Z,11.61
2023-05-24T03:38:22.635Z,11.60
2023-05-24T03:40:52.246Z,11.61
2023-05-24T03:43:23.218Z,11.60
2023-05-24T03:45:58.353Z,11.59
2023-05-24T03:48:28.109Z,11.56
2023-05-24T03:50:57.738Z,11.59
2023-05-24T03:53:27.421Z,11.57
2023-05-24T03:55:57.404Z,11.59
2023-05-24T03:58:28.339Z,11.57
2023-05-24T04:00:58.086Z,11.56
2023-05-24T04:03:27.707Z,11.54
2023-05-24T04:05:58.125Z,11.54
2023-05-24T04:08:27.661Z,11.54
2023-05-24T04:10:57.277Z,11.53
2023-05-24T04:13:28.261Z,11.57
2023-05-24T04:15:57.924Z,11.59
2023-05-24T04:18:27.725Z,11.59
2023-05-24T04:20:57.989Z,11.58
2023-05-24T04:23:27.605Z,11.59
2023-05-24T04:25:57.145Z,11.54
2023-05-24T04:28:28.420Z,11.57
2023-05-24T04:30:58.810Z,11.57
2023-05-24T04:33:28.636Z,11.56
2023-05-24T04:36:01.090Z,11.54
2023-05-24T04:38:32.349Z,11.50
2023-05-24T04:41:02.085Z,11.47
2023-05-24T04:43:33.645Z,11.47
2023-05-24T04:46:03.300Z,11.41
2023-05-24T04:48:32.880Z,11.35
2023-05-24T04:51:02.881Z,11.33
2023-05-24T04:53:32.956Z,11.32
2023-05-24T04:56:02.649Z,11.29
2023-05-24T04:58:33.968Z,11.27
2023-05-24T05:01:03.692Z,11.28
2023-05-24T05:03:33.321Z,11.28
2023-05-24T05:06:03.029Z,11.30
2023-05-24T05:08:32.726Z,11.28
2023-05-24T05:11:02.820Z,11.33
2023-05-24T05:13:33.729Z,11.35
2023-05-24T05:16:03.775Z,11.39
2023-05-24T05:18:33.951Z,11.40
2023-05-24T05:21:04.035Z,11.46
2023-05-24T05:23:33.667Z,11.49
2023-05-24T05:26:03.210Z,11.51
2023-05-24T05:28:34.290Z,11.49
2023-05-24T05:31:03.936Z,11.48
2023-05-24T05:33:34.404Z,11.47
2023-05-24T05:36:04.133Z,11.48
2023-05-24T05:38:33.823Z,11.54
2023-05-24T05:41:03.459Z,11.54
2023-05-24T05:43:34.431Z,11.59
2023-05-24T05:46:04.230Z,11.61
2023-05-24T05:48:33.859Z,11.62
2023-05-24T05:51:03.481Z,11.64
2023-05-24T05:53:35.583Z,11.70
2023-05-24T05:56:05.521Z,11.77
2023-05-24T05:58:38.555Z,11.83
2023-05-24T06:01:08.007Z,11.89
2023-05-24T06:03:37.669Z,11.93
2023-05-24T06:06:07.846Z,11.93
2023-05-24T06:08:37.478Z,11.97
2023-05-24T06:11:07.442Z,12.04
2023-05-24T06:13:38.446Z,12.12
2023-05-24T06:16:09.996Z,12.11
2023-05-24T06:18:47.431Z,12.13
2023-05-24T06:21:23.162Z,12.16
2023-05-24T06:23:53.030Z,12.23
2023-05-24T06:26:22.589Z,12.28
2023-05-24T06:28:53.721Z,12.34
2023-05-24T06:31:23.298Z,12.40
2023-05-24T06:34:03.830Z,12.48
2023-05-24T06:36:36.012Z,12.58
2023-05-24T06:39:05.779Z,12.71
2023-05-24T06:41:35.382Z,12.74
2023-05-24T06:44:06.669Z,12.77
2023-05-24T06:46:36.644Z,12.87
2023-05-24T06:49:06.967Z,12.91
2023-05-24T06:51:36.723Z,12.96
2023-05-24T06:54:06.666Z,12.94
2023-05-24T06:56:36.505Z,12.97
2023-05-24T06:59:08.763Z,13.02
2023-05-24T07:01:39.846Z,12.99
2023-05-24T07:04:09.770Z,13.00
2023-05-24T07:06:39.342Z,12.96
2023-05-24T07:09:10.422Z,13.01
2023-05-24T07:11:39.995Z,13.13
2023-05-24T07:14:10.959Z,13.24
2023-05-24T07:16:40.537Z,13.35
2023-05-24T07:19:10.144Z,13.36
2023-05-24T07:21:39.856Z,13.44
2023-05-24T07:24:09.969Z,13.54
2023-05-24T07:26:39.616Z,13.54
2023-05-24T07:29:10.953Z,13.63
2023-05-24T07:31:40.921Z,13.76
2023-05-24T07:34:10.514Z,13.85
2023-05-24T07:36:41.012Z,13.87
2023-05-24T07:39:11.061Z,13.78
2023-05-24T07:41:40.601Z,13.70
2023-05-24T07:44:12.153Z,13.62
2023-05-24T07:46:41.952Z,13.69
2023-05-24T07:49:11.615Z,13.75
2023-05-24T07:51:41.161Z,13.72
2023-05-24T07:54:10.664Z,13.67
2023-05-24T07:56:40.236Z,13.67
2023-05-24T07:59:11.508Z,13.59
2023-05-24T08:01:41.437Z,13.57
2023-05-24T08:04:11.695Z,13.59
2023-05-24T08:06:41.914Z,13.66
2023-05-24T08:09:12.426Z,13.66
2023-05-24T08:11:42.306Z,13.74
2023-05-24T08:14:13.753Z,13.76
2023-05-24T08:16:43.518Z,13.78
2023-05-24T08:19:13.371Z,13.75
2023-05-24T08:21:43.764Z,13.66
2023-05-24T08:24:13.561Z,13.61
2023-05-24T08:26:43.946Z,13.58
2023-05-24T08:29:20.098Z,13.46
2023-05-24T08:31:49.961Z,13.47
2023-05-24T08:34:19.741Z,13.54
2023-05-24T08:36:50.144Z,13.65
2023-05-24T08:39:19.831Z,13.75
2023-05-24T08:42:07.314Z,13.84
2023-05-24T08:44:50.118Z,14.01
2023-05-24T08:47:22.969Z,14.05
2023-05-24T08:49:53.056Z,14.06
2023-05-24T08:52:24.417Z,14.09
2023-05-24T08:54:54.649Z,14.20
2023-05-24T08:57:24.690Z,14.32
2023-05-24T08:59:56.161Z,14.41
2023-05-24T09:02:26.791Z,14.47
2023-05-24T09:04:57.620Z,14.49
2023-05-24T09:07:28.984Z,14.58
2023-05-24T09:10:07.006Z,14.62
2023-05-24T09:12:40.141Z,14.52
2023-05-24T09:15:11.994Z,14.31
2023-05-24T09:17:41.815Z,14.11
2023-05-24T09:20:14.524Z,14.02
2023-05-24T09:22:45.086Z,13.99
2023-05-24T09:25:16.218Z,14.00
2023-05-24T09:27:53.682Z,13.94
2023-05-24T09:30:24.790Z,13.93
2023-05-24T09:33:00.444Z,13.93
2023-05-24T09:35:31.420Z,13.94
2023-05-24T09:38:02.004Z,13.83
2023-05-24T09:40:32.055Z,13.78
2023-05-24T09:43:10.305Z,13.69
2023-05-24T09:45:46.711Z,13.61
2023-05-24T09:48:18.561Z,13.43
2023-05-24T09:51:10.008Z,13.32
2023-05-24T09:53:40.708Z,13.31
2023-05-24T09:56:12.065Z,13.33
2023-05-24T09:58:42.387Z,13.42
2023-05-24T10:01:14.665Z,13.56
2023-05-24T10:03:55.196Z,13.66
2023-05-24T10:06:25.780Z,13.71
2023-05-24T10:08:57.727Z,13.87
2023-05-24T10:11:28.052Z,13.96
2023-05-24T10:13:58.181Z,14.16
2023-05-24T10:16:29.841Z,14.22
2023-05-24T10:18:59.576Z,14.24
2023-05-24T10:21:32.907Z,14.24
2023-05-24T10:24:08.280Z,14.36
2023-05-24T10:26:40.408Z,14.43
2023-05-24T10:29:21.066Z,14.48
2023-05-24T10:31:53.974Z,14.49
2023-05-24T10:34:24.348Z,14.41
2023-05-24T10:36:54.641Z,14.26
2023-05-24T10:39:26.799Z,14.24
2023-05-24T10:41:58.108Z,14.24
2023-05-24T10:44:31.520Z,14.21
2023-05-24T10:47:11.419Z,14.17
2023-05-24T10:49:51.364Z,14.15
2023-05-24T10:52:22.138Z,14.15
2023-05-24T10:55:05.648Z,14.11
2023-05-24T10:57:35.796Z,14.08
2023-05-24T11:00:35.748Z,14.08
2023-05-24T11:03:10.919Z,14.04
2023-05-24T11:05:54.353Z,14.05
2023-05-24T11:08:32.120Z,14.05
2023-05-24T11:13:49.312Z,13.96
2023-05-24T11:16:40.358Z,13.86
2023-05-24T11:19:18.792Z,13.85
2023-05-24T11:21:50.431Z,13.84
2023-05-24T11:24:22.707Z,13.85
2023-05-24T11:26:52.904Z,13.83
2023-05-24T11:29:23.302Z,13.84
2023-05-24T11:31:57.771Z,13.86
2023-05-24T11:34:29.899Z,13.76
2023-05-24T11:37:00.884Z,13.76
2023-05-24T11:39:35.472Z,13.79
2023-05-24T11:42:08.059Z,13.88
2023-05-24T11:44:41.333Z,13.96
2023-05-24T11:47:12.020Z,14.08
2023-05-24T11:49:43.071Z,14.12
2023-05-24T11:52:12.973Z,14.03
2023-05-24T11:54:42.481Z,13.91
2023-05-24T11:57:13.996Z,13.81
2023-05-24T11:59:43.965Z,13.77
2023-05-24T12:02:14.494Z,13.81
2023-05-24T12:04:46.904Z,13.91
2023-05-24T12:07:17.827Z,14.00
2023-05-24T12:09:47.484Z,14.04
2023-05-24T12:12:17.798Z,14.08
2023-05-24T12:14:47.529Z,14.11
2023-05-24T12:17:18.123Z,14.13
2023-05-24T12:19:52.113Z,14.14
2023-05-24T12:22:30.016Z,14.17
2023-05-24T12:24:59.749Z,14.23
2023-05-24T12:27:31.262Z,14.29
2023-05-24T12:30:10.067Z,14.38
2023-05-24T12:32:40.598Z,14.41
2023-05-24T12:35:13.321Z,14.44
2023-05-24T12:37:43.465Z,14.53
2023-05-24T12:40:20.560Z,14.67
2023-05-24T12:42:54.667Z,14.81
2023-05-24T12:45:26.042Z,14.96
2023-05-24T12:47:58.929Z,15.02
2023-05-24T12:50:30.890Z,15.11
2023-05-24T12:53:00.927Z,15.20
2023-05-24T12:55:31.284Z,15.35
2023-05-24T12:58:02.702Z,15.52
2023-05-24T13:00:32.368Z,15.66
2023-05-24T13:03:02.341Z,15.77
2023-05-24T13:05:33.499Z,15.81
2023-05-24T13:08:04.072Z,15.90
2023-05-24T13:10:34.017Z,15.95
2023-05-24T13:13:03.738Z,15.97
2023-05-24T13:15:33.370Z,15.93
2023-05-24T13:18:27.977Z,15.98
2023-05-24T13:21:00.605Z,16.02
2023-05-24T13:23:30.809Z,16.09
2023-05-24T13:26:00.712Z,16.15
2023-05-24T13:28:32.148Z,16.17
2023-05-24T13:31:02.026Z,16.06
2023-05-24T13:33:36.434Z,15.98
2023-05-24T13:36:08.560Z,16.17
2023-05-24T13:38:38.383Z,16.33
2023-05-24T13:41:08.122Z,16.33
2023-05-24T13:43:37.900Z,16.37
2023-05-24T13:46:08.928Z,16.33
2023-05-24T13:48:39.818Z,16.33
2023-05-24T13:51:10.983Z,16.25
2023-05-24T13:53:40.976Z,16.22
2023-05-24T13:56:10.863Z,16.26
2023-05-24T13:58:40.461Z,16.51
2023-05-24T14:01:11.145Z,16.83
2023-05-24T14:03:41.173Z,16.90
2023-05-24T14:06:12.575Z,17.19
2023-05-24T14:08:42.533Z,17.32
2023-05-24T14:11:14.453Z,17.21
2023-05-24T14:16:16.845Z,17.02
2023-05-24T14:18:49.114Z,16.91
2023-05-24T14:21:23.445Z,16.69
2023-05-24T14:23:53.334Z,16.68
2023-05-24T14:26:23.987Z,16.78
2023-05-24T14:28:56.384Z,16.96
2023-05-24T14:31:26.859Z,17.22
2023-05-24T14:33:56.567Z,17.59
2023-05-24T14:36:30.460Z,18.29
2023-05-24T14:39:00.447Z,18.86
2023-05-24T14:41:30.513Z,19.39
2023-05-24T14:44:00.372Z,19.77
2023-05-24T14:46:30.109Z,20.13
2023-05-24T14:48:59.867Z,20.44
2023-05-24T14:51:32.673Z,20.27
2023-05-24T14:54:02.388Z,20.14
2023-05-24T14:56:32.252Z,20.39
2023-05-24T14:59:02.305Z,20.37
2023-05-24T15:01:32.530Z,20.42
2023-05-24T15:04:03.096Z,20.16
2023-05-24T15:06:35.422Z,19.96
2023-05-24T15:09:07.784Z,19.84
2023-05-24T15:11:37.904Z,20.02
2023-05-24T15:14:07.619Z,20.11
2023-05-24T15:16:37.489Z,19.89
2023-05-24T15:19:07.166Z,19.70
2023-05-24T15:21:38.523Z,19.44
2023-05-24T15:24:09.540Z,19.34
2023-05-24T15:26:39.957Z,19.17
2023-05-24T15:29:11.220Z,18.96
2023-05-24T15:31:41.069Z,18.98
2023-05-24T15:34:10.924Z,19.14
2023-05-24T15:36:42.202Z,19.32
2023-05-24T15:39:12.174Z,19.42
2023-05-24T15:41:41.921Z,19.23
2023-05-24T15:44:11.589Z,19.21
2023-05-24T15:46:42.122Z,19.06
2023-05-24T15:49:11.837Z,18.99
2023-05-24T15:54:15.543Z,18.94
2023-05-24T15:56:45.359Z,18.91
2023-05-24T15:59:15.107Z,18.62
2023-05-24T16:01:44.828Z,18.48
2023-05-24T16:04:15.261Z,18.29
2023-05-24T16:06:47.109Z,18.12
2023-05-24T16:09:16.934Z,17.92
2023-05-24T16:11:47.593Z,17.71
2023-05-24T16:14:17.863Z,17.48
2023-05-24T16:19:17.933Z,17.13
2023-05-24T16:21:49.164Z,16.98
2023-05-24T16:24:18.929Z,16.84
2023-05-24T16:26:48.581Z,16.83
2023-05-24T16:29:20.542Z,16.89
2023-05-24T16:31:50.293Z,17.04
2023-05-24T16:34:19.991Z,17.17
2023-05-24T16:36:51.236Z,17.21
2023-05-24T16:39:21.142Z,17.14
2023-05-24T16:41:51.140Z,17.04
2023-05-24T16:44:20.823Z,16.92
2023-05-24T16:46:50.745Z,16.85
2023-05-24T16:49:20.578Z,16.81
2023-05-24T16:51:51.661Z,16.71
2023-05-24T16:54:21.546Z,16.68
2023-05-24T16:56:53.882Z,16.67
2023-05-24T16:59:24.825Z,16.65
2023-05-24T17:01:54.624Z,16.53
2023-05-24T17:04:24.405Z,16.48
2023-05-24T17:06:55.926Z,16.41
2023-05-24T17:09:25.833Z,16.37
2023-05-24T17:11:55.461Z,16.35
2023-05-24T17:14:25.161Z,16.31
2023-05-24T17:16:54.817Z,16.24
2023-05-24T17:19:25.295Z,16.15
2023-05-24T17:21:56.315Z,16.11
2023-05-24T17:24:27.728Z,15.91
2023-05-24T17:26:57.680Z,15.77
2023-05-24T17:29:29.944Z,15.57
2023-05-24T17:32:00.074Z,15.38
2023-05-24T17:34:29.901Z,15.30
2023-05-24T17:37:01.776Z,15.07
2023-05-24T17:39:31.686Z,14.83
2023-05-24T17:42:01.381Z,14.67
2023-05-24T17:44:31.373Z,14.53
2023-05-24T17:47:02.060Z,14.37
2023-05-24T17:49:32.397Z,14.25
2023-05-24T17:52:03.701Z,14.01
2023-05-24T17:54:33.406Z,13.94
2023-05-24T17:57:04.095Z,13.74
2023-05-24T17:59:35.322Z,13.66
2023-05-24T18:02:05.813Z,13.52
2023-05-24T18:04:35.822Z,13.46
2023-05-24T18:07:07.252Z,13.37
2023-05-24T18:09:38.399Z,13.24
2023-05-24T18:12:08.855Z,13.21
2023-05-24T18:14:38.774Z,13.14
2023-05-24T18:17:09.367Z,12.97
2023-05-24T18:19:39.197Z,12.93
2023-05-24T18:22:10.315Z,12.86
2023-05-24T18:24:40.048Z,12.83
2023-05-24T18:27:09.976Z,12.71
2023-05-24T18:29:39.919Z,12.57
2023-05-24T18:32:09.786Z,12.53
2023-05-24T18:34:39.705Z,12.45
2023-05-24T18:37:11.159Z,12.33
2023-05-24T18:39:41.044Z,12.28
2023-05-24T18:42:12.599Z,12.24
2023-05-24T18:44:42.332Z,12.20
2023-05-24T18:47:12.523Z,12.22
2023-05-24T18:49:42.452Z,12.12
2023-05-24T18:52:13.757Z,12.05
2023-05-24T18:54:43.584Z,11.95
2023-05-24T18:57:13.488Z,11.88
2023-05-24T18:59:43.249Z,11.78
2023-05-24T19:02:13.016Z,11.68
2023-05-24T19:04:42.849Z,11.60
2023-05-24T19:07:14.078Z,11.52
2023-05-24T19:09:44.408Z,11.47
2023-05-24T19:12:14.797Z,11.42
2023-05-24T19:14:44.490Z,11.41
2023-05-24T19:17:14.361Z,11.37
2023-05-24T19:19:44.559Z,11.35
2023-05-24T19:22:15.884Z,11.33
2023-05-24T19:24:45.602Z,11.33
2023-05-24T19:27:15.578Z,11.29
2023-05-24T19:29:45.397Z,11.29
2023-05-24T19:32:15.262Z,11.19
2023-05-24T19:34:45.146Z,11.09
2023-05-24T19:37:16.805Z,10.99
2023-05-24T19:39:46.583Z,10.91
2023-05-24T19:42:16.483Z,10.88
2023-05-24T19:44:46.149Z,10.84
2023-05-24T19:47:15.965Z,10.83
2023-05-24T19:49:45.714Z,10.79
2023-05-24T19:52:19.168Z,10.71
2023-05-24T19:54:48.953Z,10.63
2023-05-24T19:57:18.695Z,10.63
2023-05-24T19:59:48.471Z,10.55
2023-05-24T20:02:18.254Z,10.52
2023-05-24T20:04:47.984Z,10.54
2023-05-24T20:07:19.101Z,10.58
2023-05-24T20:09:49.863Z,10.57
2023-05-24T20:12:19.681Z,10.59
2023-05-24T20:14:51.246Z,10.60
2023-05-24T20:17:20.958Z,10.59
2023-05-24T20:19:50.772Z,10.59
2023-05-24T20:22:21.801Z,10.62
2023-05-24T20:24:51.684Z,10.61
2023-05-24T20:27:21.458Z,10.61
2023-05-24T20:29:51.275Z,10.60
2023-05-24T20:32:21.177Z,10.54
2023-05-24T20:34:51.409Z,10.49
2023-05-24T20:37:22.486Z,10.45
2023-05-24T20:39:52.696Z,10.39
2023-05-24T20:42:22.577Z,10.40
2023-05-24T20:44:52.529Z,10.38
2023-05-24T20:47:22.390Z,10.37
2023-05-24T20:49:52.202Z,10.32
2023-05-24T20:52:23.494Z,10.27
2023-05-24T20:54:53.193Z,10.21
2023-05-24T20:57:23.121Z,10.17
2023-05-24T20:59:52.878Z,10.12
2023-05-24T21:02:22.911Z,10.09
2023-05-24T21:04:52.731Z,10.03
2023-05-24T21:07:24.265Z,9.99
2023-05-24T21:09:54.218Z,9.93
2023-05-24T21:12:23.937Z,9.91
2023-05-24T21:14:54.742Z,9.90
2023-05-24T21:17:24.432Z,9.87
2023-05-24T21:19:54.454Z,9.85
2023-05-24T21:22:25.644Z,9.84
2023-05-24T21:24:57.763Z,9.82
2023-05-24T21:27:27.720Z,9.81
2023-05-24T21:29:57.647Z,9.82
2023-05-24T21:32:27.733Z,9.83
2023-05-24T21:34:57.527Z,9.83
2023-05-24T21:37:28.513Z,9.82
2023-05-24T21:39:58.207Z,9.82
2023-05-24T21:42:28.019Z,9.85
2023-05-24T21:44:58.601Z,9.85
2023-05-24T21:47:28.208Z,9.85
2023-05-24T21:49:57.969Z,9.89
2023-05-24T21:52:28.875Z,9.91
2023-05-24T21:54:58.415Z,9.96
2023-05-24T21:57:28.015Z,9.99
2023-05-24T21:59:57.631Z,10.05
2023-05-24T22:02:27.305Z,10.08
2023-05-24T22:04:56.989Z,10.10
2023-05-24T22:07:28.164Z,10.13
2023-05-24T22:09:58.306Z,10.13
2023-05-24T22:12:29.025Z,10.17
2023-05-24T22:14:58.700Z,10.18
2023-05-24T22:17:29.192Z,10.21
2023-05-24T22:20:01.313Z,10.20
2023-05-24T22:22:32.565Z,10.23
2023-05-24T22:25:02.458Z,10.24
2023-05-24T22:27:32.058Z,10.25
2023-05-24T22:30:01.662Z,10.27
2023-05-24T22:32:31.928Z,10.26
2023-05-24T22:35:01.501Z,10.27
2023-05-24T22:37:33.312Z,10.29
2023-05-24T22:40:04.173Z,10.27
2023-05-24T22:42:33.736Z,10.29
2023-05-24T22:45:03.412Z,10.29
2023-05-24T22:47:34.652Z,10.30
2023-05-24T22:50:04.836Z,10.30
2023-05-24T22:52:35.733Z,10.31
2023-05-24T22:55:06.439Z,10.33
2023-05-24T22:57:36.022Z,10.33
2023-05-24T23:00:08.276Z,10.34
2023-05-24T23:02:37.938Z,10.35
2023-05-24T23:05:09.568Z,10.34
2023-05-24T23:07:40.781Z,10.34
2023-05-24T23:10:11.390Z,10.33
2023-05-24T23:12:42.198Z,10.33
2023-05-24T23:15:18.194Z,10.34
2023-05-24T23:17:48.252Z,10.34
2023-05-24T23:20:17.982Z,10.36
2023-05-24T23:22:49.395Z,10.35
2023-05-24T23:25:18.926Z,10.34
2023-05-24T23:27:48.456Z,10.36
2023-05-24T23:30:18.419Z,10.36
2023-05-24T23:32:47.982Z,10.36
2023-05-24T23:35:17.628Z,10.36
2023-05-24T23:37:48.643Z,10.38
2023-05-24T23:40:18.260Z,10.37
2023-05-24T23:42:47.951Z,10.38
2023-05-24T23:45:17.660Z,10.39
2023-05-24T23:47:47.214Z,10.38
2023-05-24T23:50:17.447Z,10.39
2023-05-24T23:52:48.723Z,10.39
2023-05-24T23:55:18.684Z,10.38
2023-05-24T23:57:48.429Z,10.40
